sensor_id;sensor_type;location;lat;lon;timestamp;P1;durP1;ratioP1;P2;durP2;ratioP2
33579;SDS011;19909;43.644;-79.438;2023-04-21T00:00:13;1.52;;;0.80;;
33579;SDS011;19909;43.644;-79.438;2023-04-21T00:02:39;0.70;;;0.52;;
33579;SDS011;19909;43.644;-79.438;2023-04-21T00:05:06;1.52;;;0.60;;
33579;SDS011;19909;43.644;-79.438;2023-04-21T00:07:35;1.30;;;0.68;;
33579;SDS011;19909;43.644;-79.438;2023-04-21T00:10:05;0.60;;;0.52;;
33579;SDS011;19909;43.644;-79.438;2023-04-21T00:12:35;1.80;;;0.70;;
33579;SDS011;19909;43.644;-79.438;2023-04-21T00:15:03;1.02;;;0.80;;
33579;SDS011;19909;43.644;-79.438;2023-04-21T00:17:30;0.52;;;0.52;;
33579;SDS011;19909;43.644;-79.438;2023-04-21T00:19:56;0.82;;;0.50;;
33579;SDS011;19909;43.644;-79.438;2023-04-21T00:22:22;1.35;;;0.60;;
33579;SDS011;19909;43.644;-79.438;2023-04-21T00:24:49;0.80;;;0.70;;
33579;SDS011;19909;43.644;-79.438;2023-04-21T00:27:15;1.15;;;0.75;;
33579;SDS011;19909;43.644;-79.438;2023-04-21T00:29:41;2.00;;;0.88;;
33579;SDS011;19909;43.644;-79.438;2023-04-21T00:32:07;1.02;;;0.75;;
33579;SDS011;19909;43.644;-79.438;2023-04-21T00:34:35;1.27;;;0.80;;
33579;SDS011;19909;43.644;-79.438;2023-04-21T00:37:01;0.93;;;0.82;;
33579;SDS011;19909;43.644;-79.438;2023-04-21T00:39:28;0.73;;;0.50;;
33579;SDS011;19909;43.644;-79.438;2023-04-21T00:41:54;0.95;;;0.68;;
33579;SDS011;19909;43.644;-79.438;2023-04-21T00:44:21;1.48;;;0.68;;
33579;SDS011;19909;43.644;-79.438;2023-04-21T00:46:47;0.93;;;0.60;;
33579;SDS011;19909;43.644;-79.438;2023-04-21T00:49:13;0.85;;;0.60;;
33579;SDS011;19909;43.644;-79.438;2023-04-21T00:51:40;0.93;;;0.75;;
33579;SDS011;19909;43.644;-79.438;2023-04-21T00:54:06;1.40;;;0.80;;
33579;SDS011;19909;43.644;-79.438;2023-04-21T00:56:35;1.38;;;0.77;;
33579;SDS011;19909;43.644;-79.438;2023-04-21T00:59:01;0.80;;;0.60;;
33579;SDS011;19909;43.644;-79.438;2023-04-21T01:01:28;0.80;;;0.47;;
33579;SDS011;19909;43.644;-79.438;2023-04-21T01:03:56;0.80;;;0.60;;
33579;SDS011;19909;43.644;-79.438;2023-04-21T01:06:24;0.70;;;0.50;;
33579;SDS011;19909;43.644;-79.438;2023-04-21T01:08:52;0.60;;;0.50;;
33579;SDS011;19909;43.644;-79.438;2023-04-21T01:11:19;0.88;;;0.55;;
33579;SDS011;19909;43.644;-79.438;2023-04-21T01:13:46;1.00;;;0.63;;
33579;SDS011;19909;43.644;-79.438;2023-04-21T01:16:15;1.27;;;0.80;;
33579;SDS011;19909;43.644;-79.438;2023-04-21T01:18:43;0.90;;;0.70;;
33579;SDS011;19909;43.644;-79.438;2023-04-21T01:21:10;1.17;;;0.63;;
33579;SDS011;19909;43.644;-79.438;2023-04-21T01:23:38;0.95;;;0.65;;
33579;SDS011;19909;43.644;-79.438;2023-04-21T01:26:04;0.80;;;0.60;;
33579;SDS011;19909;43.644;-79.438;2023-04-21T01:28:31;1.50;;;0.70;;
33579;SDS011;19909;43.644;-79.438;2023-04-21T01:30:57;1.15;;;0.65;;
33579;SDS011;19909;43.644;-79.438;2023-04-21T01:33:23;1.10;;;0.60;;
33579;SDS011;19909;43.644;-79.438;2023-04-21T01:35:50;0.60;;;0.50;;
33579;SDS011;19909;43.644;-79.438;2023-04-21T01:38:16;1.08;;;0.75;;
33579;SDS011;19909;43.644;-79.438;2023-04-21T01:40:43;0.52;;;0.40;;
33579;SDS011;19909;43.644;-79.438;2023-04-21T01:43:12;1.90;;;0.93;;
33579;SDS011;19909;43.644;-79.438;2023-04-21T01:45:39;0.88;;;0.52;;
33579;SDS011;19909;43.644;-79.438;2023-04-21T01:48:05;1.48;;;0.70;;
33579;SDS011;19909;43.644;-79.438;2023-04-21T01:50:31;0.77;;;0.52;;
33579;SDS011;19909;43.644;-79.438;2023-04-21T01:52:57;1.40;;;0.45;;
33579;SDS011;19909;43.644;-79.438;2023-04-21T01:55:23;1.80;;;0.93;;
33579;SDS011;19909;43.644;-79.438;2023-04-21T01:57:50;0.73;;;0.52;;
33579;SDS011;19909;43.644;-79.438;2023-04-21T02:00:16;0.70;;;0.68;;
33579;SDS011;19909;43.644;-79.438;2023-04-21T02:02:42;1.30;;;0.50;;
33579;SDS011;19909;43.644;-79.438;2023-04-21T02:05:09;1.73;;;0.70;;
33579;SDS011;19909;43.644;-79.438;2023-04-21T02:07:35;1.38;;;0.68;;
33579;SDS011;19909;43.644;-79.438;2023-04-21T02:10:01;0.82;;;0.50;;
33579;SDS011;19909;43.644;-79.438;2023-04-21T02:12:27;0.50;;;0.38;;
33579;SDS011;19909;43.644;-79.438;2023-04-21T02:14:53;0.60;;;0.40;;
33579;SDS011;19909;43.644;-79.438;2023-04-21T02:17:19;1.90;;;0.40;;
33579;SDS011;19909;43.644;-79.438;2023-04-21T02:19:46;1.00;;;0.50;;
33579;SDS011;19909;43.644;-79.438;2023-04-21T02:22:12;1.77;;;0.70;;
33579;SDS011;19909;43.644;-79.438;2023-04-21T02:24:38;1.42;;;0.60;;
33579;SDS011;19909;43.644;-79.438;2023-04-21T02:27:05;1.35;;;0.60;;
33579;SDS011;19909;43.644;-79.438;2023-04-21T02:29:31;1.33;;;0.68;;
33579;SDS011;19909;43.644;-79.438;2023-04-21T02:31:57;0.70;;;0.40;;
33579;SDS011;19909;43.644;-79.438;2023-04-21T02:34:23;1.55;;;0.60;;
33579;SDS011;19909;43.644;-79.438;2023-04-21T02:36:50;1.58;;;0.70;;
33579;SDS011;19909;43.644;-79.438;2023-04-21T02:39:16;0.95;;;0.50;;
33579;SDS011;19909;43.644;-79.438;2023-04-21T02:41:42;1.45;;;0.50;;
33579;SDS011;19909;43.644;-79.438;2023-04-21T02:44:08;1.42;;;0.68;;
33579;SDS011;19909;43.644;-79.438;2023-04-21T02:46:34;0.55;;;0.40;;
33579;SDS011;19909;43.644;-79.438;2023-04-21T02:49:03;2.42;;;0.55;;
33579;SDS011;19909;43.644;-79.438;2023-04-21T02:51:30;0.60;;;0.52;;
33579;SDS011;19909;43.644;-79.438;2023-04-21T02:53:56;0.65;;;0.30;;
33579;SDS011;19909;43.644;-79.438;2023-04-21T02:56:22;1.05;;;0.68;;
33579;SDS011;19909;43.644;-79.438;2023-04-21T02:58:48;1.40;;;0.63;;
33579;SDS011;19909;43.644;-79.438;2023-04-21T03:01:15;2.03;;;0.60;;
33579;SDS011;19909;43.644;-79.438;2023-04-21T03:03:41;1.23;;;0.60;;
33579;SDS011;19909;43.644;-79.438;2023-04-21T03:06:07;0.73;;;0.38;;
33579;SDS011;19909;43.644;-79.438;2023-04-21T03:08:33;1.13;;;0.38;;
33579;SDS011;19909;43.644;-79.438;2023-04-21T03:11:00;1.55;;;0.55;;
33579;SDS011;19909;43.644;-79.438;2023-04-21T03:13:26;1.40;;;0.60;;
33579;SDS011;19909;43.644;-79.438;2023-04-21T03:15:52;0.95;;;0.50;;
33579;SDS011;19909;43.644;-79.438;2023-04-21T03:18:18;0.63;;;0.43;;
33579;SDS011;19909;43.644;-79.438;2023-04-21T03:20:44;0.60;;;0.50;;
33579;SDS011;19909;43.644;-79.438;2023-04-21T03:23:10;1.02;;;0.47;;
33579;SDS011;19909;43.644;-79.438;2023-04-21T03:25:37;0.70;;;0.40;;
33579;SDS011;19909;43.644;-79.438;2023-04-21T03:28:03;1.08;;;0.52;;
33579;SDS011;19909;43.644;-79.438;2023-04-21T03:30:29;0.52;;;0.32;;
33579;SDS011;19909;43.644;-79.438;2023-04-21T03:32:56;0.65;;;0.40;;
33579;SDS011;19909;43.644;-79.438;2023-04-21T03:35:23;0.68;;;0.40;;
33579;SDS011;19909;43.644;-79.438;2023-04-21T03:37:49;0.68;;;0.40;;
33579;SDS011;19909;43.644;-79.438;2023-04-21T03:40:15;0.85;;;0.40;;
33579;SDS011;19909;43.644;-79.438;2023-04-21T03:42:41;0.73;;;0.40;;
33579;SDS011;19909;43.644;-79.438;2023-04-21T03:45:08;0.52;;;0.40;;
33579;SDS011;19909;43.644;-79.438;2023-04-21T03:47:35;1.42;;;0.30;;
33579;SDS011;19909;43.644;-79.438;2023-04-21T03:50:04;0.63;;;0.40;;
33579;SDS011;19909;43.644;-79.438;2023-04-21T03:52:31;0.30;;;0.30;;
33579;SDS011;19909;43.644;-79.438;2023-04-21T03:54:57;1.27;;;0.60;;
33579;SDS011;19909;43.644;-79.438;2023-04-21T03:57:23;1.20;;;0.60;;
33579;SDS011;19909;43.644;-79.438;2023-04-21T03:59:50;0.77;;;0.40;;
33579;SDS011;19909;43.644;-79.438;2023-04-21T04:02:16;0.88;;;0.35;;
33579;SDS011;19909;43.644;-79.438;2023-04-21T04:04:42;1.35;;;0.28;;
33579;SDS011;19909;43.644;-79.438;2023-04-21T04:07:08;0.80;;;0.50;;
33579;SDS011;19909;43.644;-79.438;2023-04-21T04:09:34;0.35;;;0.30;;
33579;SDS011;19909;43.644;-79.438;2023-04-21T04:12:00;1.92;;;0.68;;
33579;SDS011;19909;43.644;-79.438;2023-04-21T04:14:27;0.70;;;0.38;;
33579;SDS011;19909;43.644;-79.438;2023-04-21T04:16:54;0.60;;;0.30;;
33579;SDS011;19909;43.644;-79.438;2023-04-21T04:19:20;0.60;;;0.38;;
33579;SDS011;19909;43.644;-79.438;2023-04-21T04:21:46;1.23;;;0.50;;
33579;SDS011;19909;43.644;-79.438;2023-04-21T04:24:13;2.03;;;0.40;;
33579;SDS011;19909;43.644;-79.438;2023-04-21T04:26:39;0.98;;;0.35;;
33579;SDS011;19909;43.644;-79.438;2023-04-21T04:29:06;0.65;;;0.38;;
33579;SDS011;19909;43.644;-79.438;2023-04-21T04:31:34;1.10;;;0.40;;
33579;SDS011;19909;43.644;-79.438;2023-04-21T04:34:00;1.30;;;0.50;;
33579;SDS011;19909;43.644;-79.438;2023-04-21T04:36:27;0.90;;;0.50;;
33579;SDS011;19909;43.644;-79.438;2023-04-21T04:38:53;0.73;;;0.20;;
33579;SDS011;19909;43.644;-79.438;2023-04-21T04:41:20;0.65;;;0.38;;
33579;SDS011;19909;43.644;-79.438;2023-04-21T04:43:47;0.63;;;0.43;;
33579;SDS011;19909;43.644;-79.438;2023-04-21T04:46:13;0.90;;;0.63;;
33579;SDS011;19909;43.644;-79.438;2023-04-21T04:48:39;0.30;;;0.30;;
33579;SDS011;19909;43.644;-79.438;2023-04-21T04:51:05;0.40;;;0.30;;
33579;SDS011;19909;43.644;-79.438;2023-04-21T04:53:31;1.50;;;0.20;;
33579;SDS011;19909;43.644;-79.438;2023-04-21T04:55:58;3.00;;;0.63;;
33579;SDS011;19909;43.644;-79.438;2023-04-21T04:58:24;0.55;;;0.30;;
33579;SDS011;19909;43.644;-79.438;2023-04-21T05:00:50;1.00;;;0.32;;
33579;SDS011;19909;43.644;-79.438;2023-04-21T05:03:16;0.90;;;0.30;;
33579;SDS011;19909;43.644;-79.438;2023-04-21T05:05:43;0.52;;;0.35;;
33579;SDS011;19909;43.644;-79.438;2023-04-21T05:08:10;0.50;;;0.30;;
33579;SDS011;19909;43.644;-79.438;2023-04-21T05:10:36;0.70;;;0.40;;
33579;SDS011;19909;43.644;-79.438;2023-04-21T05:13:02;0.60;;;0.30;;
33579;SDS011;19909;43.644;-79.438;2023-04-21T05:15:28;0.20;;;0.20;;
33579;SDS011;19909;43.644;-79.438;2023-04-21T05:17:55;1.13;;;0.30;;
33579;SDS011;19909;43.644;-79.438;2023-04-21T05:20:21;0.65;;;0.32;;
33579;SDS011;19909;43.644;-79.438;2023-04-21T05:22:47;0.73;;;0.30;;
33579;SDS011;19909;43.644;-79.438;2023-04-21T05:25:13;0.43;;;0.13;;
33579;SDS011;19909;43.644;-79.438;2023-04-21T05:27:40;0.90;;;0.30;;
33579;SDS011;19909;43.644;-79.438;2023-04-21T05:30:07;0.43;;;0.32;;
33579;SDS011;19909;43.644;-79.438;2023-04-21T05:32:33;0.45;;;0.38;;
33579;SDS011;19909;43.644;-79.438;2023-04-21T05:35:00;0.28;;;0.20;;
33579;SDS011;19909;43.644;-79.438;2023-04-21T05:37:26;0.65;;;0.30;;
33579;SDS011;19909;43.644;-79.438;2023-04-21T05:39:52;0.50;;;0.30;;
33579;SDS011;19909;43.644;-79.438;2023-04-21T05:42:19;0.80;;;0.28;;
33579;SDS011;19909;43.644;-79.438;2023-04-21T05:44:46;0.52;;;0.20;;
33579;SDS011;19909;43.644;-79.438;2023-04-21T05:47:12;0.30;;;0.10;;
33579;SDS011;19909;43.644;-79.438;2023-04-21T05:49:38;0.45;;;0.20;;
33579;SDS011;19909;43.644;-79.438;2023-04-21T05:52:04;1.40;;;0.30;;
33579;SDS011;19909;43.644;-79.438;2023-04-21T05:54:33;1.08;;;0.50;;
33579;SDS011;19909;43.644;-79.438;2023-04-21T05:56:59;0.75;;;0.40;;
33579;SDS011;19909;43.644;-79.438;2023-04-21T05:59:25;0.75;;;0.32;;
33579;SDS011;19909;43.644;-79.438;2023-04-21T06:01:52;0.28;;;0.20;;
33579;SDS011;19909;43.644;-79.438;2023-04-21T06:04:18;1.33;;;0.30;;
33579;SDS011;19909;43.644;-79.438;2023-04-21T06:06:44;0.35;;;0.20;;
33579;SDS011;19909;43.644;-79.438;2023-04-21T06:09:10;0.75;;;0.35;;
33579;SDS011;19909;43.644;-79.438;2023-04-21T06:11:39;0.95;;;0.40;;
33579;SDS011;19909;43.644;-79.438;2023-04-21T06:14:06;0.30;;;0.20;;
33579;SDS011;19909;43.644;-79.438;2023-04-21T06:16:32;0.32;;;0.30;;
33579;SDS011;19909;43.644;-79.438;2023-04-21T06:18:58;0.40;;;0.13;;
33579;SDS011;19909;43.644;-79.438;2023-04-21T06:21:25;0.20;;;0.20;;
33579;SDS011;19909;43.644;-79.438;2023-04-21T06:23:51;0.60;;;0.40;;
33579;SDS011;19909;43.644;-79.438;2023-04-21T06:26:17;0.22;;;0.13;;
33579;SDS011;19909;43.644;-79.438;2023-04-21T06:28:44;0.40;;;0.30;;
33579;SDS011;19909;43.644;-79.438;2023-04-21T06:31:10;0.70;;;0.40;;
33579;SDS011;19909;43.644;-79.438;2023-04-21T06:33:39;1.25;;;0.40;;
33579;SDS011;19909;43.644;-79.438;2023-04-21T06:36:06;0.28;;;0.20;;
33579;SDS011;19909;43.644;-79.438;2023-04-21T06:38:32;0.30;;;0.30;;
33579;SDS011;19909;43.644;-79.438;2023-04-21T06:40:59;0.52;;;0.40;;
33579;SDS011;19909;43.644;-79.438;2023-04-21T06:43:25;0.38;;;0.17;;
33579;SDS011;19909;43.644;-79.438;2023-04-21T06:45:51;0.35;;;0.25;;
33579;SDS011;19909;43.644;-79.438;2023-04-21T06:48:17;0.40;;;0.20;;
33579;SDS011;19909;43.644;-79.438;2023-04-21T06:50:43;0.57;;;0.20;;
33579;SDS011;19909;43.644;-79.438;2023-04-21T06:53:10;0.45;;;0.10;;
33579;SDS011;19909;43.644;-79.438;2023-04-21T06:55:36;0.57;;;0.28;;
33579;SDS011;19909;43.644;-79.438;2023-04-21T06:58:03;0.35;;;0.30;;
33579;SDS011;19909;43.644;-79.438;2023-04-21T07:00:29;0.80;;;0.38;;
33579;SDS011;19909;43.644;-79.438;2023-04-21T07:02:55;1.00;;;0.20;;
33579;SDS011;19909;43.644;-79.438;2023-04-21T07:05:21;0.30;;;0.20;;
33579;SDS011;19909;43.644;-79.438;2023-04-21T07:07:48;0.50;;;0.35;;
33579;SDS011;19909;43.644;-79.438;2023-04-21T07:10:14;0.88;;;0.30;;
33579;SDS011;19909;43.644;-79.438;2023-04-21T07:12:44;0.65;;;0.30;;
33579;SDS011;19909;43.644;-79.438;2023-04-21T07:15:10;0.77;;;0.20;;
33579;SDS011;19909;43.644;-79.438;2023-04-21T07:17:37;0.32;;;0.30;;
33579;SDS011;19909;43.644;-79.438;2023-04-21T07:20:03;0.30;;;0.20;;
33579;SDS011;19909;43.644;-79.438;2023-04-21T07:22:30;0.32;;;0.20;;
33579;SDS011;19909;43.644;-79.438;2023-04-21T07:24:56;1.30;;;0.40;;
33579;SDS011;19909;43.644;-79.438;2023-04-21T07:27:22;0.45;;;0.22;;
33579;SDS011;19909;43.644;-79.438;2023-04-21T07:29:48;1.65;;;0.20;;
33579;SDS011;19909;43.644;-79.438;2023-04-21T07:32:14;2.30;;;0.20;;
33579;SDS011;19909;43.644;-79.438;2023-04-21T07:34:40;1.00;;;0.40;;
33579;SDS011;19909;43.644;-79.438;2023-04-21T07:37:07;0.40;;;0.22;;
33579;SDS011;19909;43.644;-79.438;2023-04-21T07:39:34;0.88;;;0.30;;
33579;SDS011;19909;43.644;-79.438;2023-04-21T07:42:00;1.80;;;0.40;;
33579;SDS011;19909;43.644;-79.438;2023-04-21T07:44:26;0.13;;;0.10;;
33579;SDS011;19909;43.644;-79.438;2023-04-21T07:46:53;0.28;;;0.20;;
33579;SDS011;19909;43.644;-79.438;2023-04-21T07:49:19;0.28;;;0.10;;
33579;SDS011;19909;43.644;-79.438;2023-04-21T07:51:46;2.05;;;0.22;;
33579;SDS011;19909;43.644;-79.438;2023-04-21T07:54:12;0.15;;;0.15;;
33579;SDS011;19909;43.644;-79.438;2023-04-21T07:56:38;0.30;;;0.20;;
33579;SDS011;19909;43.644;-79.438;2023-04-21T07:59:04;0.38;;;0.30;;
33579;SDS011;19909;43.644;-79.438;2023-04-21T08:01:30;0.38;;;0.20;;
33579;SDS011;19909;43.644;-79.438;2023-04-21T08:03:56;0.30;;;0.10;;
33579;SDS011;19909;43.644;-79.438;2023-04-21T08:06:23;0.28;;;0.20;;
33579;SDS011;19909;43.644;-79.438;2023-04-21T08:08:49;0.35;;;0.20;;
33579;SDS011;19909;43.644;-79.438;2023-04-21T08:11:15;0.57;;;0.30;;
33579;SDS011;19909;43.644;-79.438;2023-04-21T08:16:07;0.47;;;0.28;;
33579;SDS011;19909;43.644;-79.438;2023-04-21T08:18:33;0.20;;;0.20;;
33579;SDS011;19909;43.644;-79.438;2023-04-21T08:21:00;1.05;;;0.20;;
33579;SDS011;19909;43.644;-79.438;2023-04-21T08:23:26;0.30;;;0.20;;
33579;SDS011;19909;43.644;-79.438;2023-04-21T08:25:55;0.38;;;0.30;;
33579;SDS011;19909;43.644;-79.438;2023-04-21T08:28:21;1.25;;;0.30;;
33579;SDS011;19909;43.644;-79.438;2023-04-21T08:30:48;0.80;;;0.38;;
33579;SDS011;19909;43.644;-79.438;2023-04-21T08:33:14;0.38;;;0.20;;
33579;SDS011;19909;43.644;-79.438;2023-04-21T08:35:40;0.50;;;0.20;;
33579;SDS011;19909;43.644;-79.438;2023-04-21T08:38:07;0.10;;;0.10;;
33579;SDS011;19909;43.644;-79.438;2023-04-21T08:40:35;0.57;;;0.20;;
33579;SDS011;19909;43.644;-79.438;2023-04-21T08:43:06;0.30;;;0.30;;
33579;SDS011;19909;43.644;-79.438;2023-04-21T08:45:33;0.30;;;0.30;;
33579;SDS011;19909;43.644;-79.438;2023-04-21T08:48:00;0.65;;;0.30;;
33579;SDS011;19909;43.644;-79.438;2023-04-21T08:50:29;0.10;;;0.10;;
33579;SDS011;19909;43.644;-79.438;2023-04-21T08:52:56;0.40;;;0.20;;
33579;SDS011;19909;43.644;-79.438;2023-04-21T08:55:27;0.15;;;0.10;;
33579;SDS011;19909;43.644;-79.438;2023-04-21T08:57:54;0.43;;;0.30;;
33579;SDS011;19909;43.644;-79.438;2023-04-21T09:00:21;0.20;;;0.20;;
33579;SDS011;19909;43.644;-79.438;2023-04-21T09:02:51;1.45;;;0.20;;
33579;SDS011;19909;43.644;-79.438;2023-04-21T09:05:22;0.98;;;0.20;;
33579;SDS011;19909;43.644;-79.438;2023-04-21T09:07:50;0.80;;;0.20;;
33579;SDS011;19909;43.644;-79.438;2023-04-21T09:10:23;0.20;;;0.10;;
33579;SDS011;19909;43.644;-79.438;2023-04-21T09:12:50;0.30;;;0.10;;
33579;SDS011;19909;43.644;-79.438;2023-04-21T09:15:20;0.63;;;0.20;;
33579;SDS011;19909;43.644;-79.438;2023-04-21T09:17:48;0.45;;;0.17;;
33579;SDS011;19909;43.644;-79.438;2023-04-21T09:20:21;0.20;;;0.20;;
33579;SDS011;19909;43.644;-79.438;2023-04-21T09:22:48;1.35;;;0.13;;
33579;SDS011;19909;43.644;-79.438;2023-04-21T09:25:16;0.25;;;0.10;;
33579;SDS011;19909;43.644;-79.438;2023-04-21T09:27:46;0.98;;;0.20;;
33579;SDS011;19909;43.644;-79.438;2023-04-21T09:30:12;0.17;;;0.15;;
33579;SDS011;19909;43.644;-79.438;2023-04-21T09:32:43;0.68;;;0.10;;
33579;SDS011;19909;43.644;-79.438;2023-04-21T09:35:09;0.17;;;0.10;;
33579;SDS011;19909;43.644;-79.438;2023-04-21T09:37:36;0.20;;;0.13;;
33579;SDS011;19909;43.644;-79.438;2023-04-21T09:40:03;0.35;;;0.20;;
33579;SDS011;19909;43.644;-79.438;2023-04-21T09:42:31;0.20;;;0.20;;
33579;SDS011;19909;43.644;-79.438;2023-04-21T09:44:57;0.32;;;0.17;;
33579;SDS011;19909;43.644;-79.438;2023-04-21T09:47:24;0.17;;;0.10;;
33579;SDS011;19909;43.644;-79.438;2023-04-21T09:49:53;0.10;;;0.10;;
33579;SDS011;19909;43.644;-79.438;2023-04-21T09:52:22;0.85;;;0.17;;
33579;SDS011;19909;43.644;-79.438;2023-04-21T09:55:00;0.55;;;0.30;;
33579;SDS011;19909;43.644;-79.438;2023-04-21T09:57:32;0.50;;;0.20;;
33579;SDS011;19909;43.644;-79.438;2023-04-21T10:00:07;0.20;;;0.20;;
33579;SDS011;19909;43.644;-79.438;2023-04-21T10:02:44;0.38;;;0.22;;
33579;SDS011;19909;43.644;-79.438;2023-04-21T10:05:13;0.68;;;0.17;;
33579;SDS011;19909;43.644;-79.438;2023-04-21T10:07:39;0.10;;;0.10;;
33579;SDS011;19909;43.644;-79.438;2023-04-21T10:10:06;0.43;;;0.20;;
33579;SDS011;19909;43.644;-79.438;2023-04-21T10:12:40;0.30;;;0.13;;
33579;SDS011;19909;43.644;-79.438;2023-04-21T10:15:27;0.22;;;0.10;;
33579;SDS011;19909;43.644;-79.438;2023-04-21T10:18:15;0.13;;;0.13;;
33579;SDS011;19909;43.644;-79.438;2023-04-21T10:20:52;0.13;;;0.10;;
33579;SDS011;19909;43.644;-79.438;2023-04-21T10:26:46;0.17;;;0.10;;
33579;SDS011;19909;43.644;-79.438;2023-04-21T10:29:03;0.38;;;0.10;;
33579;SDS011;19909;43.644;-79.438;2023-04-21T10:47:27;0.28;;;0.20;;
33579;SDS011;19909;43.644;-79.438;2023-04-21T10:49:55;0.20;;;0.20;;
33579;SDS011;19909;43.644;-79.438;2023-04-21T10:52:29;1.75;;;0.30;;
33579;SDS011;19909;43.644;-79.438;2023-04-21T10:57:23;1.30;;;0.35;;
33579;SDS011;19909;43.644;-79.438;2023-04-21T10:59:50;0.43;;;0.30;;
33579;SDS011;19909;43.644;-79.438;2023-04-21T11:02:16;0.77;;;0.30;;
33579;SDS011;19909;43.644;-79.438;2023-04-21T11:04:43;0.22;;;0.20;;
33579;SDS011;19909;43.644;-79.438;2023-04-21T11:09:46;0.32;;;0.20;;
33579;SDS011;19909;43.644;-79.438;2023-04-21T11:12:14;0.30;;;0.20;;
33579;SDS011;19909;43.644;-79.438;2023-04-21T11:14:43;0.22;;;0.20;;
33579;SDS011;19909;43.644;-79.438;2023-04-21T11:17:12;0.25;;;0.20;;
33579;SDS011;19909;43.644;-79.438;2023-04-21T11:19:40;0.88;;;0.30;;
33579;SDS011;19909;43.644;-79.438;2023-04-21T11:22:10;0.45;;;0.20;;
33579;SDS011;19909;43.644;-79.438;2023-04-21T11:24:36;0.20;;;0.20;;
33579;SDS011;19909;43.644;-79.438;2023-04-21T11:27:02;0.77;;;0.28;;
33579;SDS011;19909;43.644;-79.438;2023-04-21T11:29:32;1.60;;;0.30;;
33579;SDS011;19909;43.644;-79.438;2023-04-21T11:31:58;0.20;;;0.20;;
33579;SDS011;19909;43.644;-79.438;2023-04-21T11:34:25;0.35;;;0.20;;
33579;SDS011;19909;43.644;-79.438;2023-04-21T11:36:51;0.75;;;0.28;;
33579;SDS011;19909;43.644;-79.438;2023-04-21T11:39:20;0.75;;;0.20;;
33579;SDS011;19909;43.644;-79.438;2023-04-21T11:41:47;0.68;;;0.30;;
33579;SDS011;19909;43.644;-79.438;2023-04-21T11:47:12;0.50;;;0.30;;
33579;SDS011;19909;43.644;-79.438;2023-04-21T11:49:43;0.50;;;0.30;;
33579;SDS011;19909;43.644;-79.438;2023-04-21T11:52:20;0.32;;;0.20;;
33579;SDS011;19909;43.644;-79.438;2023-04-21T11:57:29;0.60;;;0.28;;
33579;SDS011;19909;43.644;-79.438;2023-04-21T12:00:04;0.52;;;0.30;;
33579;SDS011;19909;43.644;-79.438;2023-04-21T12:02:32;0.77;;;0.30;;
33579;SDS011;19909;43.644;-79.438;2023-04-21T12:05:05;0.68;;;0.40;;
33579;SDS011;19909;43.644;-79.438;2023-04-21T12:07:34;0.70;;;0.20;;
33579;SDS011;19909;43.644;-79.438;2023-04-21T12:10:07;0.25;;;0.20;;
33579;SDS011;19909;43.644;-79.438;2023-04-21T12:12:36;0.75;;;0.40;;
33579;SDS011;19909;43.644;-79.438;2023-04-21T12:15:06;0.55;;;0.20;;
33579;SDS011;19909;43.644;-79.438;2023-04-21T12:17:43;0.90;;;0.40;;
33579;SDS011;19909;43.644;-79.438;2023-04-21T12:20:21;1.95;;;0.20;;
33579;SDS011;19909;43.644;-79.438;2023-04-21T12:22:48;2.03;;;0.30;;
33579;SDS011;19909;43.644;-79.438;2023-04-21T12:25:15;1.50;;;0.30;;
33579;SDS011;19909;43.644;-79.438;2023-04-21T12:27:48;0.35;;;0.30;;
33579;SDS011;19909;43.644;-79.438;2023-04-21T12:30:18;0.80;;;0.60;;
33579;SDS011;19909;43.644;-79.438;2023-04-21T12:32:45;0.88;;;0.30;;
33579;SDS011;19909;43.644;-79.438;2023-04-21T12:35:12;2.17;;;0.32;;
33579;SDS011;19909;43.644;-79.438;2023-04-21T12:37:38;0.73;;;0.30;;
33579;SDS011;19909;43.644;-79.438;2023-04-21T12:40:05;0.28;;;0.10;;
33579;SDS011;19909;43.644;-79.438;2023-04-21T12:42:32;1.75;;;0.30;;
33579;SDS011;19909;43.644;-79.438;2023-04-21T12:44:58;0.47;;;0.20;;
33579;SDS011;19909;43.644;-79.438;2023-04-21T12:47:25;0.70;;;0.35;;
33579;SDS011;19909;43.644;-79.438;2023-04-21T12:49:51;0.43;;;0.20;;
33579;SDS011;19909;43.644;-79.438;2023-04-21T12:52:18;1.95;;;0.30;;
33579;SDS011;19909;43.644;-79.438;2023-04-21T12:54:44;0.45;;;0.20;;
33579;SDS011;19909;43.644;-79.438;2023-04-21T12:57:10;0.90;;;0.20;;
33579;SDS011;19909;43.644;-79.438;2023-04-21T12:59:37;0.50;;;0.30;;
33579;SDS011;19909;43.644;-79.438;2023-04-21T13:02:04;0.90;;;0.40;;
33579;SDS011;19909;43.644;-79.438;2023-04-21T13:04:31;0.75;;;0.20;;
33579;SDS011;19909;43.644;-79.438;2023-04-21T13:06:57;0.40;;;0.20;;
33579;SDS011;19909;43.644;-79.438;2023-04-21T13:09:23;1.17;;;0.30;;
33579;SDS011;19909;43.644;-79.438;2023-04-21T13:11:49;0.47;;;0.22;;
33579;SDS011;19909;43.644;-79.438;2023-04-21T13:14:16;0.80;;;0.20;;
33579;SDS011;19909;43.644;-79.438;2023-04-21T13:16:42;0.70;;;0.30;;
33579;SDS011;19909;43.644;-79.438;2023-04-21T13:19:09;0.43;;;0.20;;
33579;SDS011;19909;43.644;-79.438;2023-04-21T13:21:35;0.80;;;0.30;;
33579;SDS011;19909;43.644;-79.438;2023-04-21T13:24:01;1.15;;;0.20;;
33579;SDS011;19909;43.644;-79.438;2023-04-21T13:26:27;0.40;;;0.35;;
33579;SDS011;19909;43.644;-79.438;2023-04-21T13:28:56;0.85;;;0.43;;
33579;SDS011;19909;43.644;-79.438;2023-04-21T13:31:22;0.45;;;0.20;;
33579;SDS011;19909;43.644;-79.438;2023-04-21T13:33:48;0.32;;;0.28;;
33579;SDS011;19909;43.644;-79.438;2023-04-21T13:36:15;0.70;;;0.25;;
33579;SDS011;19909;43.644;-79.438;2023-04-21T13:38:41;1.77;;;0.22;;
33579;SDS011;19909;43.644;-79.438;2023-04-21T13:41:07;0.68;;;0.30;;
33579;SDS011;19909;43.644;-79.438;2023-04-21T13:43:34;0.70;;;0.50;;
33579;SDS011;19909;43.644;-79.438;2023-04-21T13:46:00;0.20;;;0.13;;
33579;SDS011;19909;43.644;-79.438;2023-04-21T13:48:26;0.95;;;0.20;;
33579;SDS011;19909;43.644;-79.438;2023-04-21T13:50:53;0.75;;;0.20;;
33579;SDS011;19909;43.644;-79.438;2023-04-21T13:53:20;0.45;;;0.28;;
33579;SDS011;19909;43.644;-79.438;2023-04-21T13:55:46;0.57;;;0.30;;
33579;SDS011;19909;43.644;-79.438;2023-04-21T13:58:13;0.70;;;0.28;;
33579;SDS011;19909;43.644;-79.438;2023-04-21T14:00:40;1.48;;;0.35;;
33579;SDS011;19909;43.644;-79.438;2023-04-21T14:03:07;0.40;;;0.20;;
33579;SDS011;19909;43.644;-79.438;2023-04-21T14:05:34;0.65;;;0.28;;
33579;SDS011;19909;43.644;-79.438;2023-04-21T14:08:00;0.85;;;0.22;;
33579;SDS011;19909;43.644;-79.438;2023-04-21T14:10:26;0.60;;;0.20;;
33579;SDS011;19909;43.644;-79.438;2023-04-21T14:12:52;0.75;;;0.30;;
33579;SDS011;19909;43.644;-79.438;2023-04-21T14:15:18;1.48;;;0.20;;
33579;SDS011;19909;43.644;-79.438;2023-04-21T14:17:44;0.32;;;0.20;;
33579;SDS011;19909;43.644;-79.438;2023-04-21T14:20:11;1.50;;;0.15;;
33579;SDS011;19909;43.644;-79.438;2023-04-21T14:22:37;0.93;;;0.20;;
33579;SDS011;19909;43.644;-79.438;2023-04-21T14:25:03;0.60;;;0.30;;
33579;SDS011;19909;43.644;-79.438;2023-04-21T14:27:29;0.35;;;0.20;;
33579;SDS011;19909;43.644;-79.438;2023-04-21T14:29:56;0.30;;;0.22;;
33579;SDS011;19909;43.644;-79.438;2023-04-21T14:32:24;1.48;;;0.30;;
33579;SDS011;19909;43.644;-79.438;2023-04-21T14:34:50;0.63;;;0.20;;
33579;SDS011;19909;43.644;-79.438;2023-04-21T14:37:18;0.80;;;0.22;;
33579;SDS011;19909;43.644;-79.438;2023-04-21T14:39:47;0.47;;;0.20;;
33579;SDS011;19909;43.644;-79.438;2023-04-21T14:42:13;1.98;;;0.30;;
33579;SDS011;19909;43.644;-79.438;2023-04-21T14:44:39;0.52;;;0.20;;
33579;SDS011;19909;43.644;-79.438;2023-04-21T14:47:06;0.90;;;0.32;;
33579;SDS011;19909;43.644;-79.438;2023-04-21T14:49:32;0.68;;;0.35;;
33579;SDS011;19909;43.644;-79.438;2023-04-21T14:51:58;0.40;;;0.10;;